Terminal Aerodrome Forecast
Issued by NWS

Home | Current Version | Previous Version | Text Only | Print | Product List | Glossary On
Versions: 1 2 3 4 5 6 7 8 9 10 11 12 13 14 15 16 17 18 19 20 21 22 23 24 25 26 27 28 29 30 31 32 33 34 35 36 37 38 39 40 41
000
FTUS45 KBOU 050535
TAFBJC
TAF
KBJC 050535Z 0506/0606 27007KT P6SM FEW140 BKN200
     FM051200 VRB05KT P6SM SCT140 BKN200
     FM051800 03006KT P6SM SCT090 BKN140
     FM052100 29010KT P6SM SCT090 BKN140 PROB30 0522/0524 VRB20G30KT
      -TSRA BKN080CB
     FM060300 33010KT P6SM VCSH SCT080 BKN120=

USA.gov is the U.S. government's official web portal to all federal, state and local government web resources and services.